Time;durP1;ratioP1;P1;durP2;ratioP2;P2;SDS_P1;SDS_P2;PMS_P1;PMS_P2;Temp;Humidity;BMP_temperature;BMP_pressure;BME280_temperature;BME280_humidity;BME280_pressure;Samples;Min_cycle;Max_cycle;Signal;HPM_P1;HPM_P2
2022/06/25 00:00:29;;;;;;;;;;;25.70;99.90;;;;;;5106869;28;19908;-63
2022/06/25 00:02:55;;;;;;;;;;;25.70;99.90;;;;;;5102952;28;20006;-63
2022/06/25 00:05:32;;;;;;;;;;;25.60;99.90;;;;;;5110419;28;19922;-62
2022/06/25 00:07:58;;;;;;;;;;;25.70;99.90;;;;;;5098736;28;19927;-64
2022/06/25 00:10:24;;;;;;;;;;;25.60;99.90;;;;;;5097989;28;20288;-62
2022/06/25 00:12:50;;;;;;;;;;;25.60;99.90;;;;;;5113272;27;20499;-63
2022/06/25 00:15:16;;;;;;;;;;;25.70;99.90;;;;;;5101591;28;19908;-64
2022/06/25 00:17:42;;;;;;;;;;;25.70;99.90;;;;;;5108847;28;19908;-67
2022/06/25 00:20:08;;;;;;;;;;;25.80;99.90;;;;;;5099001;28;19986;-67
2022/06/25 00:22:34;;;;;;;;;;;25.60;99.90;;;;;;5104662;28;19908;-68
2022/06/25 00:24:59;;;;;;;;;;;25.40;99.90;;;;;;5105700;28;19916;-67
2022/06/25 00:27:25;;;;;;;;;;;25.20;99.90;;;;;;5104758;28;19912;-66
2022/06/25 00:29:51;;;;;;;;;;;25.20;99.90;;;;;;5103581;28;20021;-66
2022/06/25 00:32:16;;;;;;;;;;;25.10;99.90;;;;;;5100043;28;20234;-66
2022/06/25 00:34:42;;;;;;;;;;;25.10;99.90;;;;;;5101723;28;19919;-67
2022/06/25 00:37:08;;;;;;;;;;;25.00;99.90;;;;;;5097533;28;20023;-66
2022/06/25 00:39:35;;;;;;;;;;;25.10;99.90;;;;;;5100474;28;19907;-66
2022/06/25 00:42:01;;;;;;;;;;;25.10;99.90;;;;;;5107727;28;19954;-66
2022/06/25 00:44:32;;;;;;;;;;;25.10;99.90;;;;;;5109919;28;20027;-68
2022/06/25 00:46:58;;;;;;;;;;;25.10;99.90;;;;;;5110555;28;20006;-65
2022/06/25 00:49:24;;;;;;;;;;;25.00;99.90;;;;;;5108666;28;19955;-66
2022/06/25 00:51:50;;;;;;;;;;;25.00;99.90;;;;;;5106755;28;20331;-65
2022/06/25 00:54:16;;;;;;;;;;;24.90;99.90;;;;;;5106442;28;19915;-65
2022/06/25 00:56:46;;;;;;;;;;;24.90;99.90;;;;;;5106141;28;19912;-65
2022/06/25 00:59:12;;;;;;;;;;;24.80;99.90;;;;;;5104609;28;19994;-64
2022/06/25 01:01:38;;;;;;;;;;;24.80;99.90;;;;;;5103904;28;19908;-65
2022/06/25 01:04:04;;;;;;;;;;;24.80;99.90;;;;;;5101902;28;19914;-65
2022/06/25 01:06:29;;;;;;;;;;;24.80;99.90;;;;;;5104018;28;19964;-66
2022/06/25 01:08:58;;;;;;;;;;;24.80;99.90;;;;;;5109760;28;19911;-68
2022/06/25 01:11:25;;;;;;;;;;;24.70;99.90;;;;;;5109382;28;19908;-64
2022/06/25 01:13:52;;;;;;;;;;;24.70;99.90;;;;;;5104915;28;19908;-65
2022/06/25 01:16:19;;;;;;;;;;;24.60;99.90;;;;;;5104586;28;19995;-67
2022/06/25 01:18:44;;;;;;;;;;;24.60;99.90;;;;;;5107238;28;19971;-65
2022/06/25 01:21:10;;;;;;;;;;;24.60;99.90;;;;;;5107209;28;19947;-65
2022/06/25 01:23:36;;;;;;;;;;;24.60;99.90;;;;;;5110075;28;19956;-68
2022/06/25 01:26:02;;;;;;;;;;;24.60;99.90;;;;;;5104610;28;19912;-66
2022/06/25 01:28:27;;;;;;;;;;;24.60;99.90;;;;;;5108465;28;20304;-64
2022/06/25 01:30:53;;;;;;;;;;;24.60;99.90;;;;;;5106435;28;19926;-63
2022/06/25 01:33:19;;;;;;;;;;;24.60;99.90;;;;;;5109403;28;19961;-65
2022/06/25 01:35:44;;;;;;;;;;;24.50;99.90;;;;;;5109453;28;20736;-65
2022/06/25 01:38:10;;;;;;;;;;;24.50;99.90;;;;;;5109637;28;19915;-68
2022/06/25 01:40:36;;;;;;;;;;;24.50;99.90;;;;;;5104060;28;19934;-67
2022/06/25 01:43:01;;;;;;;;;;;24.50;99.90;;;;;;5106306;28;19908;-66
2022/06/25 01:45:28;;;;;;;;;;;24.50;99.90;;;;;;5109306;28;19912;-67
2022/06/25 01:47:54;;;;;;;;;;;24.50;99.90;;;;;;5129835;27;19911;-65
2022/06/25 01:50:20;;;;;;;;;;;24.50;99.90;;;;;;5109153;28;20047;-65
2022/06/25 01:52:46;;;;;;;;;;;24.50;99.90;;;;;;5113097;28;20381;-66
2022/06/25 01:55:12;;;;;;;;;;;24.50;99.90;;;;;;5112276;28;20391;-65
2022/06/25 01:57:38;;;;;;;;;;;24.50;99.90;;;;;;5104835;28;19952;-66
2022/06/25 02:00:08;;;;;;;;;;;24.50;99.90;;;;;;5107947;28;19911;-67
2022/06/25 02:02:35;;;;;;;;;;;24.50;99.90;;;;;;5108897;28;19980;-66
2022/06/25 02:05:01;;;;;;;;;;;24.40;99.90;;;;;;5109672;28;19907;-66
2022/06/25 02:07:26;;;;;;;;;;;24.40;99.90;;;;;;5108191;28;20361;-66
2022/06/25 02:09:52;;;;;;;;;;;24.40;99.90;;;;;;5100790;28;19930;-66
2022/06/25 02:12:17;;;;;;;;;;;24.40;99.90;;;;;;5108830;28;19958;-67
2022/06/25 02:14:43;;;;;;;;;;;24.40;99.90;;;;;;5107635;28;19916;-67
2022/06/25 02:17:09;;;;;;;;;;;24.40;99.90;;;;;;5108587;28;19914;-66
2022/06/25 02:19:34;;;;;;;;;;;24.40;99.90;;;;;;5108946;28;19903;-66
2022/06/25 02:22:00;;;;;;;;;;;24.40;99.90;;;;;;5091257;28;19912;-66
2022/06/25 02:24:26;;;;;;;;;;;24.30;99.90;;;;;;5107544;28;19915;-66
2022/06/25 02:26:51;;;;;;;;;;;24.30;99.90;;;;;;5104399;28;19934;-67
2022/06/25 02:29:17;;;;;;;;;;;24.30;99.90;;;;;;5108167;28;19911;-66
2022/06/25 02:31:42;;;;;;;;;;;24.30;99.90;;;;;;5111248;28;20016;-65
2022/06/25 02:34:08;;;;;;;;;;;24.20;99.90;;;;;;5108093;28;19916;-65
2022/06/25 02:36:33;;;;;;;;;;;24.30;99.90;;;;;;5105691;28;19950;-65
2022/06/25 02:38:59;;;;;;;;;;;24.20;99.90;;;;;;5109976;28;20544;-65
2022/06/25 02:41:25;;;;;;;;;;;24.20;99.90;;;;;;5101917;28;19908;-67
2022/06/25 02:43:50;;;;;;;;;;;24.20;99.90;;;;;;5109663;28;19908;-66
2022/06/25 02:46:16;;;;;;;;;;;24.20;99.90;;;;;;5108140;28;20311;-66
2022/06/25 02:48:42;;;;;;;;;;;24.20;99.90;;;;;;5109963;28;19912;-66
2022/06/25 02:51:07;;;;;;;;;;;24.10;99.90;;;;;;5103942;28;19908;-66
2022/06/25 02:53:33;;;;;;;;;;;24.10;99.90;;;;;;5110965;28;19998;-66
2022/06/25 02:58:54;;;;;;;;;;;24.10;99.90;;;;;;5110367;28;19918;-65
2022/06/25 03:01:20;;;;;;;;;;;24.10;99.90;;;;;;5108417;28;19919;-66
2022/06/25 03:03:45;;;;;;;;;;;24.00;99.90;;;;;;5107808;28;20262;-66
2022/06/25 03:06:11;;;;;;;;;;;24.00;99.90;;;;;;5109110;28;19953;-66
2022/06/25 03:08:37;;;;;;;;;;;24.00;99.90;;;;;;5111988;28;19908;-66
2022/06/25 03:11:02;;;;;;;;;;;23.90;99.90;;;;;;5104647;28;20573;-66
2022/06/25 03:13:29;;;;;;;;;;;23.90;99.90;;;;;;5109087;28;19904;-66
2022/06/25 03:15:55;;;;;;;;;;;23.90;99.90;;;;;;5106888;28;19914;-65
2022/06/25 03:18:20;;;;;;;;;;;23.90;99.90;;;;;;5101233;28;19915;-65
2022/06/25 03:20:46;;;;;;;;;;;23.90;99.90;;;;;;5096301;28;19930;-69
2022/06/25 03:23:12;;;;;;;;;;;24.00;99.90;;;;;;5101132;28;20009;-66
2022/06/25 03:25:38;;;;;;;;;;;24.00;99.90;;;;;;5102179;28;19907;-66
2022/06/25 03:28:04;;;;;;;;;;;23.90;99.90;;;;;;5102735;28;19918;-67
2022/06/25 03:30:29;;;;;;;;;;;23.90;99.90;;;;;;5099844;28;19993;-66
2022/06/25 03:32:55;;;;;;;;;;;24.00;99.90;;;;;;5108105;28;20293;-67
2022/06/25 03:35:21;;;;;;;;;;;24.00;99.90;;;;;;5110654;28;19920;-66
2022/06/25 03:37:46;;;;;;;;;;;24.00;99.90;;;;;;5108315;28;20036;-66
2022/06/25 03:40:12;;;;;;;;;;;24.00;99.90;;;;;;5107132;28;19915;-65
2022/06/25 03:42:38;;;;;;;;;;;24.10;99.90;;;;;;5108751;28;19981;-67
2022/06/25 03:45:03;;;;;;;;;;;24.10;99.90;;;;;;5105481;28;20001;-65
2022/06/25 03:47:29;;;;;;;;;;;24.10;99.90;;;;;;5106637;28;20277;-66
2022/06/25 03:49:55;;;;;;;;;;;24.10;99.90;;;;;;5112031;28;19904;-65
2022/06/25 03:52:21;;;;;;;;;;;24.10;99.90;;;;;;5087271;28;20277;-66
2022/06/25 03:54:46;;;;;;;;;;;24.00;99.90;;;;;;5097698;28;19960;-65
2022/06/25 03:57:12;;;;;;;;;;;24.00;99.90;;;;;;5108908;28;19972;-66
2022/06/25 03:59:38;;;;;;;;;;;24.00;99.90;;;;;;5108465;28;20571;-65
2022/06/25 04:02:03;;;;;;;;;;;23.90;99.90;;;;;;5100757;28;19907;-65
2022/06/25 04:04:29;;;;;;;;;;;23.90;99.90;;;;;;5105293;28;19907;-67
2022/06/25 04:06:54;;;;;;;;;;;23.90;99.90;;;;;;5107394;28;19959;-67
2022/06/25 04:09:20;;;;;;;;;;;23.80;99.90;;;;;;5106741;28;19938;-65
2022/06/25 04:11:46;;;;;;;;;;;23.80;99.90;;;;;;5106441;28;20328;-66
2022/06/25 04:14:11;;;;;;;;;;;23.80;99.90;;;;;;5104931;28;20395;-66
2022/06/25 04:16:37;;;;;;;;;;;23.80;99.90;;;;;;5109877;28;19907;-65
2022/06/25 04:19:02;;;;;;;;;;;23.90;99.90;;;;;;5108987;28;19917;-64
2022/06/25 04:21:28;;;;;;;;;;;23.90;99.90;;;;;;5109673;28;19908;-67
2022/06/25 04:23:54;;;;;;;;;;;24.00;99.90;;;;;;5108843;28;19907;-64
2022/06/25 04:26:19;;;;;;;;;;;24.00;99.90;;;;;;5109620;28;19923;-67
2022/06/25 04:29:03;;;;;;;;;;;24.10;99.90;;;;;;5108081;28;19930;-66
2022/06/25 04:31:29;;;;;;;;;;;24.20;99.90;;;;;;5105518;28;19951;-66
2022/06/25 04:33:55;;;;;;;;;;;24.40;99.90;;;;;;5104699;28;19958;-66
2022/06/25 04:36:21;;;;;;;;;;;24.30;99.90;;;;;;5104856;28;19915;-66
2022/06/25 04:38:46;;;;;;;;;;;24.30;99.90;;;;;;5103955;28;19907;-66
2022/06/25 04:41:12;;;;;;;;;;;24.30;99.90;;;;;;5098706;28;19919;-66
2022/06/25 04:43:38;;;;;;;;;;;24.30;99.90;;;;;;5105395;28;19972;-66
2022/06/25 04:46:03;;;;;;;;;;;24.40;99.90;;;;;;5100329;28;19908;-66
2022/06/25 04:48:29;;;;;;;;;;;24.40;99.90;;;;;;5101220;28;20395;-65
2022/06/25 04:50:55;;;;;;;;;;;24.50;99.90;;;;;;5108067;28;20285;-66
2022/06/25 04:53:20;;;;;;;;;;;24.40;99.90;;;;;;5102285;28;19916;-66
2022/06/25 04:55:46;;;;;;;;;;;24.50;99.90;;;;;;5108897;28;19972;-65
2022/06/25 04:58:11;;;;;;;;;;;24.50;99.90;;;;;;5109878;28;19904;-66
2022/06/25 05:00:37;;;;;;;;;;;24.60;99.90;;;;;;5099692;28;19946;-65
2022/06/25 05:03:03;;;;;;;;;;;24.60;99.90;;;;;;5107311;28;20514;-66
2022/06/25 05:05:29;;;;;;;;;;;24.70;99.90;;;;;;5105149;28;19911;-65
2022/06/25 05:07:55;;;;;;;;;;;24.70;99.90;;;;;;5101818;28;19911;-64
2022/06/25 05:10:21;;;;;;;;;;;24.80;99.90;;;;;;5102255;28;19916;-65
2022/06/25 05:15:30;;;;;;;;;;;24.90;99.90;;;;;;5102880;28;20277;-64
2022/06/25 05:17:56;;;;;;;;;;;25.00;99.90;;;;;;5107801;28;19923;-66
2022/06/25 05:20:22;;;;;;;;;;;25.00;99.90;;;;;;5106982;28;19919;-69
2022/06/25 05:22:48;;;;;;;;;;;25.00;99.90;;;;;;5104111;28;19907;-69
2022/06/25 05:25:14;;;;;;;;;;;25.20;99.90;;;;;;5107913;28;20003;-69
2022/06/25 05:27:39;;;;;;;;;;;25.20;99.90;;;;;;5113196;28;19908;-69
2022/06/25 05:30:06;;;;;;;;;;;25.50;99.90;;;;;;5105381;28;20050;-69
2022/06/25 05:32:31;;;;;;;;;;;25.60;99.90;;;;;;5114443;27;19961;-68
2022/06/25 05:34:57;;;;;;;;;;;25.70;99.90;;;;;;5117655;27;20327;-69
2022/06/25 05:37:23;;;;;;;;;;;25.60;99.90;;;;;;5111791;28;19947;-70
2022/06/25 05:39:49;;;;;;;;;;;25.50;99.90;;;;;;5116510;27;20356;-67
2022/06/25 05:42:15;;;;;;;;;;;25.50;99.90;;;;;;5134855;27;19914;-69
2022/06/25 05:44:41;;;;;;;;;;;25.50;99.90;;;;;;5109766;28;19907;-69
2022/06/25 05:47:06;;;;;;;;;;;25.80;99.90;;;;;;5112225;28;19907;-71
2022/06/25 05:49:32;;;;;;;;;;;26.10;99.90;;;;;;5114975;28;19990;-69
2022/06/25 05:51:58;;;;;;;;;;;26.30;99.90;;;;;;5113623;28;19958;-68
2022/06/25 05:54:23;;;;;;;;;;;26.50;99.90;;;;;;5108504;28;19915;-70
2022/06/25 05:56:49;;;;;;;;;;;26.50;99.90;;;;;;5114367;28;19948;-70
2022/06/25 05:59:14;;;;;;;;;;;26.70;99.90;;;;;;5112751;28;19952;-71
2022/06/25 06:01:40;;;;;;;;;;;26.70;99.90;;;;;;5109001;28;19915;-69
2022/06/25 06:04:06;;;;;;;;;;;26.80;99.90;;;;;;5108142;28;19907;-71
2022/06/25 06:06:32;;;;;;;;;;;26.80;99.90;;;;;;5112601;28;20269;-70
2022/06/25 06:08:58;;;;;;;;;;;26.90;99.90;;;;;;5110434;28;19908;-71
2022/06/25 06:11:23;;;;;;;;;;;26.90;99.90;;;;;;5109567;28;19915;-70
2022/06/25 06:13:49;;;;;;;;;;;27.00;99.90;;;;;;5109281;28;19920;-69
2022/06/25 06:16:15;;;;;;;;;;;27.00;99.90;;;;;;5112923;28;20311;-70
2022/06/25 06:18:40;;;;;;;;;;;27.00;99.90;;;;;;5112713;28;19904;-69
2022/06/25 06:21:06;;;;;;;;;;;27.00;99.90;;;;;;5110201;28;19965;-70
2022/06/25 06:23:32;;;;;;;;;;;27.00;99.90;;;;;;5111668;28;20350;-69
2022/06/25 06:25:57;;;;;;;;;;;26.90;99.90;;;;;;5111568;28;19908;-69
2022/06/25 06:28:23;;;;;;;;;;;26.90;99.90;;;;;;5111829;28;20309;-68
2022/06/25 06:30:48;;;;;;;;;;;26.80;99.90;;;;;;5107983;28;19908;-68
2022/06/25 06:33:14;;;;;;;;;;;26.80;99.90;;;;;;5111158;28;20036;-70
2022/06/25 06:35:40;;;;;;;;;;;26.80;99.90;;;;;;5111089;28;19920;-68
2022/06/25 06:38:05;;;;;;;;;;;26.90;99.90;;;;;;5112240;28;19904;-69
2022/06/25 06:40:32;;;;;;;;;;;27.00;99.90;;;;;;5113294;28;19930;-68
2022/06/25 06:42:58;;;;;;;;;;;27.20;99.90;;;;;;5112028;28;19919;-69
2022/06/25 06:45:25;;;;;;;;;;;27.40;99.90;;;;;;5107337;28;19908;-70
2022/06/25 06:47:51;;;;;;;;;;;27.40;99.90;;;;;;5106350;28;19958;-69
2022/06/25 06:50:17;;;;;;;;;;;27.30;99.90;;;;;;5109535;28;20003;-69
2022/06/25 06:52:43;;;;;;;;;;;27.30;99.90;;;;;;5113195;28;19943;-70
2022/06/25 06:55:08;;;;;;;;;;;27.30;99.90;;;;;;5119391;27;20002;-70
2022/06/25 06:57:37;;;;;;;;;;;27.50;99.90;;;;;;5134064;27;20280;-70
2022/06/25 07:00:04;;;;;;;;;;;27.50;99.90;;;;;;5111526;27;20258;-70
2022/06/25 07:02:30;;;;;;;;;;;27.60;99.90;;;;;;5112398;28;20005;-66
2022/06/25 07:04:56;;;;;;;;;;;27.70;99.90;;;;;;5108605;28;19931;-65
2022/06/25 07:07:21;;;;;;;;;;;27.80;99.90;;;;;;5110939;28;19958;-64
2022/06/25 07:09:47;;;;;;;;;;;27.80;99.90;;;;;;5109653;28;19938;-64
2022/06/25 07:12:13;;;;;;;;;;;27.90;99.90;;;;;;5110263;28;19966;-65
2022/06/25 07:14:38;;;;;;;;;;;27.90;99.90;;;;;;5108030;28;19956;-65
2022/06/25 07:17:04;;;;;;;;;;;27.80;99.90;;;;;;5110438;28;19957;-65
2022/06/25 07:19:30;;;;;;;;;;;27.90;99.90;;;;;;5108209;28;20434;-65
2022/06/25 07:21:57;;;;;;;;;;;27.90;99.90;;;;;;5091349;28;19907;-64
2022/06/25 07:24:22;;;;;;;;;;;28.00;99.90;;;;;;5107171;28;20345;-65
2022/06/25 07:26:48;;;;;;;;;;;27.90;99.90;;;;;;5111200;28;19955;-65
2022/06/25 07:29:14;;;;;;;;;;;28.00;99.90;;;;;;5104568;28;19915;-64
2022/06/25 07:31:40;;;;;;;;;;;28.10;99.90;;;;;;5100678;28;20002;-69
2022/06/25 07:34:05;;;;;;;;;;;28.30;99.90;;;;;;5109335;28;19907;-71
2022/06/25 07:36:31;;;;;;;;;;;28.50;99.90;;;;;;5110124;28;20003;-71
2022/06/25 07:38:57;;;;;;;;;;;28.50;99.90;;;;;;5107755;28;19907;-71
2022/06/25 07:41:23;;;;;;;;;;;28.50;99.90;;;;;;5102633;28;20155;-70
2022/06/25 07:43:48;;;;;;;;;;;28.60;99.90;;;;;;5110376;28;19915;-70
2022/06/25 07:46:14;;;;;;;;;;;28.80;99.90;;;;;;5107491;28;19907;-71
2022/06/25 07:48:40;;;;;;;;;;;29.00;99.90;;;;;;5110230;28;19904;-70
2022/06/25 07:53:50;;;;;;;;;;;29.30;99.90;;;;;;5111402;28;20065;-73
2022/06/25 07:56:16;;;;;;;;;;;29.00;99.90;;;;;;5108157;28;20377;-71
2022/06/25 07:58:41;;;;;;;;;;;29.10;99.90;;;;;;5108991;28;20445;-71
2022/06/25 08:01:07;;;;;;;;;;;29.00;99.90;;;;;;5108402;28;19951;-68
2022/06/25 08:03:33;;;;;;;;;;;28.80;99.90;;;;;;5109849;28;19926;-69
2022/06/25 08:05:58;;;;;;;;;;;28.40;99.90;;;;;;5111049;28;19915;-69
2022/06/25 08:08:24;;;;;;;;;;;28.10;99.90;;;;;;5111585;28;19910;-68
2022/06/25 08:10:51;;;;;;;;;;;28.20;99.90;;;;;;5111250;28;19907;-69
2022/06/25 08:13:17;;;;;;;;;;;28.30;99.90;;;;;;5107201;28;19903;-71
2022/06/25 08:15:42;;;;;;;;;;;28.40;99.90;;;;;;5098288;28;19927;-71
2022/06/25 08:18:08;;;;;;;;;;;28.80;99.90;;;;;;5110210;28;19910;-72
2022/06/25 08:20:33;;;;;;;;;;;28.90;99.90;;;;;;5111966;28;19907;-73
2022/06/25 08:22:59;;;;;;;;;;;28.90;99.90;;;;;;5112376;28;19904;-69
2022/06/25 08:25:25;;;;;;;;;;;28.80;99.90;;;;;;5112234;28;19953;-69
2022/06/25 08:27:51;;;;;;;;;;;28.70;99.90;;;;;;5111421;28;19957;-70
2022/06/25 08:30:18;;;;;;;;;;;28.80;99.90;;;;;;5111277;28;19908;-69
2022/06/25 08:32:44;;;;;;;;;;;28.90;99.90;;;;;;5109546;28;19994;-71
2022/06/25 08:35:09;;;;;;;;;;;28.90;99.90;;;;;;5115327;28;19912;-70
2022/06/25 08:37:39;;;;;;;;;;;28.90;99.90;;;;;;5114754;28;20356;-71
2022/06/25 08:40:06;;;;;;;;;;;29.10;99.90;;;;;;5113595;28;19911;-70
2022/06/25 08:42:31;;;;;;;;;;;29.20;99.90;;;;;;5110688;28;19907;-70
2022/06/25 08:44:57;;;;;;;;;;;28.90;99.90;;;;;;5109176;28;19914;-71
2022/06/25 08:47:23;;;;;;;;;;;28.50;99.90;;;;;;5111745;28;19933;-72
2022/06/25 08:49:48;;;;;;;;;;;28.10;99.90;;;;;;5111220;28;19951;-70
2022/06/25 08:52:15;;;;;;;;;;;28.00;99.90;;;;;;5109886;28;20294;-70
2022/06/25 08:54:41;;;;;;;;;;;28.00;99.90;;;;;;5108345;28;19907;-72
2022/06/25 08:57:08;;;;;;;;;;;28.00;99.90;;;;;;5105860;28;20562;-69
2022/06/25 08:59:34;;;;;;;;;;;28.10;99.90;;;;;;5101106;28;19911;-69
2022/06/25 09:02:00;;;;;;;;;;;28.30;99.90;;;;;;5104695;28;20560;-66
2022/06/25 09:04:26;;;;;;;;;;;28.10;99.90;;;;;;5108051;28;20251;-66
2022/06/25 09:07:08;;;;;;;;;;;28.00;99.90;;;;;;5106959;28;19957;-66
2022/06/25 09:09:33;;;;;;;;;;;28.10;99.90;;;;;;5099736;28;19907;-67
2022/06/25 09:12:07;;;;;;;;;;;28.20;99.90;;;;;;5108044;28;19969;-67
2022/06/25 09:14:35;;;;;;;;;;;28.00;99.90;;;;;;5101544;28;20301;-70
2022/06/25 09:17:04;;;;;;;;;;;27.90;99.90;;;;;;5103128;28;19907;-68
2022/06/25 09:19:34;;;;;;;;;;;28.00;99.90;;;;;;5089989;28;19923;-67
2022/06/25 09:22:00;;;;;;;;;;;27.80;99.90;;;;;;5088590;28;20519;-69
2022/06/25 09:24:38;;;;;;;;;;;28.00;99.90;;;;;;5106230;28;19904;-70
2022/06/25 09:27:04;;;;;;;;;;;28.40;99.90;;;;;;5111329;28;19968;-67
2022/06/25 09:29:40;;;;;;;;;;;28.50;99.90;;;;;;5109288;28;19975;-69
2022/06/25 09:32:06;;;;;;;;;;;28.20;99.90;;;;;;5106207;28;20002;-68
2022/06/25 09:34:34;;;;;;;;;;;28.00;99.90;;;;;;5104943;28;19960;-67
2022/06/25 09:37:20;;;;;;;;;;;27.60;99.90;;;;;;5114798;28;19998;-67
2022/06/25 09:39:46;;;;;;;;;;;27.20;99.90;;;;;;5111690;28;20318;-68
2022/06/25 09:42:22;;;;;;;;;;;26.90;99.90;;;;;;5107567;28;19915;-67
2022/06/25 09:44:48;;;;;;;;;;;26.80;99.90;;;;;;5111449;28;19934;-70
2022/06/25 09:47:14;;;;;;;;;;;26.60;99.90;;;;;;5106523;28;19911;-69
2022/06/25 09:49:40;;;;;;;;;;;26.70;99.90;;;;;;5105678;28;20277;-67
2022/06/25 09:52:06;;;;;;;;;;;26.80;99.90;;;;;;5111121;28;19915;-67
2022/06/25 09:54:31;;;;;;;;;;;26.90;99.90;;;;;;5112357;28;19907;-68
2022/06/25 09:56:59;;;;;;;;;;;27.10;99.90;;;;;;5108399;28;20283;-68
2022/06/25 09:59:28;;;;;;;;;;;27.00;99.90;;;;;;5110234;28;19915;-70
2022/06/25 10:01:54;;;;;;;;;;;26.70;99.90;;;;;;5102414;28;19907;-68
2022/06/25 10:04:21;;;;;;;;;;;26.80;99.90;;;;;;5109798;28;19977;-67
2022/06/25 10:06:47;;;;;;;;;;;26.90;99.90;;;;;;5112794;28;19912;-67
2022/06/25 10:09:14;;;;;;;;;;;27.00;99.90;;;;;;5115256;28;20289;-68
2022/06/25 10:11:39;;;;;;;;;;;27.00;99.90;;;;;;5115713;28;19915;-69
2022/06/25 10:14:05;;;;;;;;;;;27.00;99.90;;;;;;5109403;28;19907;-70
2022/06/25 10:16:31;;;;;;;;;;;26.90;99.90;;;;;;5108544;28;19915;-68
2022/06/25 10:18:57;;;;;;;;;;;26.70;99.90;;;;;;5111287;28;19907;-66
2022/06/25 10:21:23;;;;;;;;;;;26.50;99.90;;;;;;5108486;28;19915;-66
2022/06/25 10:23:53;;;;;;;;;;;26.60;99.90;;;;;;5112689;28;19919;-64
2022/06/25 10:26:19;;;;;;;;;;;26.70;99.90;;;;;;5101505;28;19912;-64
2022/06/25 10:28:46;;;;;;;;;;;26.60;99.90;;;;;;5096746;28;19908;-65
2022/06/25 10:31:14;;;;;;;;;;;26.30;99.90;;;;;;5106429;28;20327;-65
2022/06/25 10:33:56;;;;;;;;;;;26.30;99.90;;;;;;5108073;28;19982;-63
2022/06/25 10:36:40;;;;;;;;;;;26.40;99.90;;;;;;5107015;28;19907;-66
2022/06/25 10:39:26;;;;;;;;;;;26.60;99.90;;;;;;5109349;28;19904;-65
2022/06/25 10:45:04;;;;;;;;;;;26.50;99.90;;;;;;5112955;28;19976;-66
2022/06/25 10:47:48;;;;;;;;;;;26.70;99.90;;;;;;5108107;28;19919;-66
2022/06/25 10:50:20;;;;;;;;;;;26.70;99.90;;;;;;5106286;28;19908;-64
2022/06/25 10:53:05;;;;;;;;;;;26.90;99.90;;;;;;5109392;28;20327;-65
2022/06/25 10:55:34;;;;;;;;;;;26.50;99.90;;;;;;5108521;28;20377;-65
2022/06/25 10:58:13;;;;;;;;;;;26.60;99.90;;;;;;5111336;28;19915;-66
2022/06/25 11:00:46;;;;;;;;;;;26.70;99.90;;;;;;5107245;28;19950;-64
2022/06/25 11:03:12;;;;;;;;;;;26.60;99.90;;;;;;5105597;28;19908;-65
2022/06/25 11:05:47;;;;;;;;;;;26.70;99.90;;;;;;5109451;28;19914;-67
2022/06/25 11:08:13;;;;;;;;;;;26.90;99.90;;;;;;5111659;28;19926;-66
2022/06/25 11:10:39;;;;;;;;;;;27.00;99.90;;;;;;5110660;28;19908;-65
2022/06/25 11:13:05;;;;;;;;;;;26.80;99.90;;;;;;5106489;28;20419;-65
2022/06/25 11:15:39;;;;;;;;;;;26.90;99.90;;;;;;5107730;28;19903;-65
2022/06/25 11:18:08;;;;;;;;;;;27.00;99.90;;;;;;5105683;28;19912;-65
2022/06/25 11:20:34;;;;;;;;;;;27.10;99.90;;;;;;5110258;28;20311;-65
2022/06/25 11:22:59;;;;;;;;;;;27.20;99.90;;;;;;5106651;28;19908;-65
2022/06/25 11:30:54;;;;;;;;;;;27.10;99.90;;;;;;5112290;28;19957;-66
2022/06/25 11:33:20;;;;;;;;;;;27.00;99.90;;;;;;5109420;28;20363;-66
2022/06/25 11:35:46;;;;;;;;;;;27.00;99.90;;;;;;5108901;28;19920;-66
2022/06/25 11:38:14;;;;;;;;;;;27.30;99.90;;;;;;5112651;28;19907;-67
2022/06/25 11:40:40;;;;;;;;;;;27.30;99.90;;;;;;5110500;28;19930;-67
2022/06/25 11:43:06;;;;;;;;;;;27.20;99.90;;;;;;5100147;27;20380;-66
2022/06/25 11:45:32;;;;;;;;;;;27.20;99.90;;;;;;5109350;28;19908;-65
2022/06/25 11:47:58;;;;;;;;;;;27.20;99.90;;;;;;5105501;28;20431;-65
2022/06/25 11:50:23;;;;;;;;;;;27.40;99.90;;;;;;5108719;28;19908;-66
2022/06/25 11:52:49;;;;;;;;;;;27.30;99.90;;;;;;5101274;28;19908;-65
2022/06/25 11:55:15;;;;;;;;;;;27.40;99.90;;;;;;5107209;28;20227;-65
2022/06/25 11:57:44;;;;;;;;;;;27.40;99.90;;;;;;5111058;28;19978;-67
2022/06/25 12:00:13;;;;;;;;;;;27.50;99.90;;;;;;5111069;28;20384;-67
2022/06/25 12:02:39;;;;;;;;;;;27.50;99.90;;;;;;5109697;28;19931;-66
2022/06/25 12:05:05;;;;;;;;;;;27.70;99.90;;;;;;5111576;28;19911;-65
2022/06/25 12:07:32;;;;;;;;;;;27.60;99.90;;;;;;5110822;28;19927;-64
2022/06/25 12:09:58;;;;;;;;;;;27.70;99.90;;;;;;5110779;28;19987;-64
2022/06/25 12:12:24;;;;;;;;;;;27.50;99.90;;;;;;5110898;28;20369;-66
2022/06/25 12:14:50;;;;;;;;;;;27.50;99.90;;;;;;5110844;28;19908;-64
2022/06/25 12:17:16;;;;;;;;;;;27.90;99.90;;;;;;5109089;28;20327;-66
2022/06/25 12:19:48;;;;;;;;;;;28.00;99.90;;;;;;5099432;28;19908;-64
2022/06/25 12:22:19;;;;;;;;;;;28.10;99.90;;;;;;5108578;28;19908;-65
2022/06/25 12:24:46;;;;;;;;;;;27.90;99.90;;;;;;5091858;28;19948;-67
2022/06/25 12:27:11;;;;;;;;;;;27.90;99.90;;;;;;5092536;28;19908;-65
2022/06/25 12:29:37;;;;;;;;;;;27.80;99.90;;;;;;5092832;28;19904;-64
2022/06/25 12:32:03;;;;;;;;;;;27.60;99.90;;;;;;5098561;28;19911;-65
2022/06/25 12:34:28;;;;;;;;;;;27.50;99.90;;;;;;5104188;28;19911;-65
2022/06/25 12:36:54;;;;;;;;;;;27.40;99.90;;;;;;5105347;28;19956;-65
2022/06/25 12:39:34;;;;;;;;;;;27.40;99.90;;;;;;5108324;28;19908;-66
2022/06/25 12:42:04;;;;;;;;;;;27.50;99.90;;;;;;5099170;28;19918;-64
2022/06/25 12:44:31;;;;;;;;;;;27.40;99.90;;;;;;5108839;28;19907;-65
2022/06/25 12:47:05;;;;;;;;;;;27.30;99.90;;;;;;5103294;28;19918;-65
2022/06/25 12:49:49;;;;;;;;;;;27.30;99.90;;;;;;5107463;28;19912;-64
2022/06/25 12:52:38;;;;;;;;;;;27.40;99.90;;;;;;5097822;28;20345;-64
2022/06/25 12:55:04;;;;;;;;;;;27.50;99.90;;;;;;5092491;28;19908;-65
2022/06/25 12:57:31;;;;;;;;;;;28.00;99.90;;;;;;5109417;28;19947;-65
2022/06/25 12:59:58;;;;;;;;;;;27.90;99.90;;;;;;5108506;28;19937;-65
2022/06/25 13:02:24;;;;;;;;;;;27.90;99.90;;;;;;5109801;28;19903;-65
2022/06/25 13:04:50;;;;;;;;;;;27.60;99.90;;;;;;5111934;28;19908;-63
2022/06/25 13:07:16;;;;;;;;;;;27.60;99.90;;;;;;5110707;28;19999;-64
2022/06/25 13:09:43;;;;;;;;;;;27.80;99.90;;;;;;5111535;28;19988;-62
2022/06/25 13:12:09;;;;;;;;;;;28.00;99.90;;;;;;5107430;28;19915;-65
2022/06/25 13:14:35;;;;;;;;;;;28.20;99.90;;;;;;5109249;28;19908;-64
2022/06/25 13:17:01;;;;;;;;;;;28.10;99.90;;;;;;5111311;28;19904;-65
2022/06/25 13:19:28;;;;;;;;;;;27.70;99.90;;;;;;5104265;28;19911;-65
2022/06/25 13:21:53;;;;;;;;;;;27.80;99.90;;;;;;5103664;28;19912;-65
2022/06/25 13:24:19;;;;;;;;;;;27.60;99.90;;;;;;5107692;28;19911;-66
2022/06/25 13:26:44;;;;;;;;;;;27.50;99.90;;;;;;5109206;28;19964;-64
2022/06/25 13:29:10;;;;;;;;;;;27.70;99.90;;;;;;5113750;28;20281;-65
2022/06/25 13:31:36;;;;;;;;;;;27.60;99.90;;;;;;5107637;28;19908;-65
2022/06/25 13:34:02;;;;;;;;;;;27.70;99.90;;;;;;5109874;28;19912;-65
2022/06/25 13:36:28;;;;;;;;;;;27.70;99.90;;;;;;5107025;28;19915;-65
2022/06/25 13:38:53;;;;;;;;;;;27.70;99.90;;;;;;5112881;28;20292;-65
2022/06/25 13:41:20;;;;;;;;;;;27.50;99.90;;;;;;5112350;28;19923;-65
2022/06/25 13:43:45;;;;;;;;;;;27.40;99.90;;;;;;5115956;28;19904;-64
2022/06/25 13:46:11;;;;;;;;;;;27.50;99.90;;;;;;5114744;28;19934;-66
2022/06/25 13:48:36;;;;;;;;;;;27.50;99.90;;;;;;5114937;28;19914;-65
2022/06/25 13:51:02;;;;;;;;;;;27.60;99.90;;;;;;5113326;28;19916;-66
2022/06/25 13:53:30;;;;;;;;;;;27.40;99.90;;;;;;5115885;28;19903;-64
2022/06/25 13:55:56;;;;;;;;;;;27.60;99.90;;;;;;5116016;28;19943;-65
2022/06/25 13:58:22;;;;;;;;;;;27.70;99.90;;;;;;5115838;28;19904;-64
2022/06/25 14:00:48;;;;;;;;;;;27.80;99.90;;;;;;5110649;28;19907;-64
2022/06/25 14:03:13;;;;;;;;;;;27.80;99.90;;;;;;5113651;28;20367;-66
2022/06/25 14:05:39;;;;;;;;;;;27.80;99.90;;;;;;5113760;28;19907;-64
2022/06/25 14:08:05;;;;;;;;;;;27.80;99.90;;;;;;5112512;28;19919;-64
2022/06/25 14:10:31;;;;;;;;;;;27.70;99.90;;;;;;5114808;28;19998;-65
2022/06/25 14:12:57;;;;;;;;;;;27.80;99.90;;;;;;5114567;28;19919;-64
2022/06/25 14:15:23;;;;;;;;;;;28.00;99.90;;;;;;5115667;28;19908;-65
2022/06/25 14:17:48;;;;;;;;;;;27.80;99.90;;;;;;5116363;28;19904;-65
2022/06/25 14:20:15;;;;;;;;;;;27.70;99.90;;;;;;5110214;28;19915;-65
2022/06/25 14:22:40;;;;;;;;;;;27.50;99.90;;;;;;5113199;28;19907;-65
2022/06/25 14:25:21;;;;;;;;;;;27.60;99.90;;;;;;5116113;28;19904;-66
2022/06/25 14:27:47;;;;;;;;;;;27.70;99.90;;;;;;5116156;28;20023;-65
2022/06/25 14:30:13;;;;;;;;;;;27.50;99.90;;;;;;5114066;28;20377;-65